createdAt,value
2017-06-21T00:02:39.667Z,86.3
2017-06-21T00:12:55.362Z,86.6
2017-06-21T00:23:09.818Z,87.1
2017-06-21T00:33:23.603Z,87.1
2017-06-21T00:43:37.608Z,88.4
2017-06-21T00:53:52.339Z,89
2017-06-21T01:04:06.929Z,88.5
2017-06-21T01:14:21.921Z,89.1
2017-06-21T01:24:35.990Z,90.2
2017-06-21T01:34:50.166Z,90.7
2017-06-21T01:45:03.952Z,91.4
2017-06-21T01:55:19.088Z,92
2017-06-21T02:05:33.018Z,92.7
2017-06-21T02:15:48.441Z,93.2
2017-06-21T02:26:03.042Z,94
2017-06-21T02:36:16.858Z,94.7
2017-06-21T02:46:32.575Z,94.9
2017-06-21T02:56:47.079Z,95.3
2017-06-21T03:07:00.996Z,95.4
2017-06-21T03:17:15.313Z,96.1
2017-06-21T03:27:29.922Z,95.9
2017-06-21T03:37:43.774Z,96.5
2017-06-21T03:47:59.400Z,96.5
2017-06-21T03:58:14.960Z,96.7
2017-06-21T04:08:30.364Z,96.4
2017-06-21T04:18:45.322Z,96.7
2017-06-21T04:29:00.700Z,95.9
2017-06-21T04:39:15.305Z,95.6
2017-06-21T04:49:29.583Z,95.7
2017-06-21T04:59:45.229Z,95.1
2017-06-21T05:10:00.726Z,94.5
2017-06-21T05:20:15.122Z,94.5
2017-06-21T05:30:29.355Z,94.6
2017-06-21T05:40:43.406Z,93.3
2017-06-21T05:50:59.080Z,91.8
2017-06-21T06:01:14.847Z,91.3
2017-06-21T06:11:30.215Z,89.5
2017-06-21T06:21:43.874Z,86.5
2017-06-21T06:31:57.730Z,83.8
2017-06-21T06:42:13.407Z,81.8
2017-06-21T06:52:27.497Z,81.4
2017-06-21T07:02:42.040Z,77.7
2017-06-21T07:12:56.381Z,76.1
2017-06-21T07:23:11.919Z,75.6
2017-06-21T07:33:26.775Z,74.5
2017-06-21T07:43:41.503Z,73.4
2017-06-21T07:53:56.468Z,72.6
2017-06-21T08:04:11.912Z,71.6
2017-06-21T08:14:26.957Z,70.5
2017-06-21T08:24:41.736Z,69
2017-06-21T08:34:57.422Z,66.9
2017-06-21T08:45:12.043Z,66.3
2017-06-21T08:55:26.176Z,66.2
2017-06-21T09:05:41.126Z,63.2
2017-06-21T09:15:55.389Z,65.1
2017-06-21T09:26:10.446Z,64.2
2017-06-21T09:36:25.122Z,61.9
2017-06-21T09:46:40.352Z,61
2017-06-21T09:56:55.339Z,60.9
2017-06-21T10:07:09.788Z,60.9
2017-06-21T10:17:25.362Z,59.4
2017-06-21T10:27:39.776Z,60.5
2017-06-21T10:37:55.163Z,59
2017-06-21T10:48:10.774Z,59
2017-06-21T10:58:25.968Z,59.1
2017-06-21T11:08:40.680Z,57.8
2017-06-21T11:18:55.970Z,56
2017-06-21T11:29:11.366Z,56.5
2017-06-21T11:39:27.092Z,56.7
2017-06-21T11:59:58.839Z,55.3
2017-06-21T12:10:14.848Z,54.4
2017-06-21T12:20:28.933Z,54.1
2017-06-21T12:30:44.610Z,54.4
2017-06-21T12:40:59.300Z,55.2
2017-06-21T12:51:14.933Z,54.6
2017-06-21T13:01:29.144Z,53.1
2017-06-21T13:11:43.842Z,52.5
2017-06-21T13:21:58.397Z,51.8
2017-06-21T13:32:12.497Z,52.8
2017-06-21T13:42:28.061Z,50.6
2017-06-21T13:52:42.753Z,51
2017-06-21T14:02:56.940Z,50.4
2017-06-21T14:13:11.578Z,52.5
2017-06-21T14:33:40.475Z,51.1
2017-06-21T14:43:56.278Z,52.1
2017-06-21T14:54:10.498Z,52.9
2017-06-21T15:04:26.072Z,52.6
2017-06-21T15:14:40.749Z,53.4
2017-06-21T15:24:55.429Z,51.9
2017-06-21T15:35:09.535Z,51.4
2017-06-21T15:45:23.698Z,51.9
2017-06-21T15:55:39.039Z,50.1
2017-06-21T16:05:53.576Z,51.6
2017-06-21T16:16:09.222Z,52.2
2017-06-21T16:26:24.953Z,52.2
2017-06-21T16:36:40.850Z,51.9
2017-06-21T16:46:55.510Z,52.7
2017-06-21T17:07:24.022Z,53.2
2017-06-21T17:17:38.032Z,54.2
2017-06-21T17:27:52.711Z,54.7
2017-06-21T17:38:07.554Z,54.5
2017-06-21T17:48:22.674Z,55
2017-06-21T17:58:38.299Z,56.7
2017-06-21T18:08:52.220Z,59.7
2017-06-21T18:19:06.509Z,63.1
2017-06-21T18:29:20.923Z,64.4
2017-06-21T18:39:36.455Z,66.5
2017-06-21T18:49:50.800Z,69.2
2017-06-21T19:00:04.996Z,70.5
2017-06-21T19:10:19.490Z,70.1
2017-06-21T19:20:35.270Z,70.7
2017-06-21T19:41:05.437Z,72.4
2017-06-21T19:51:20.279Z,73.7
2017-06-21T20:01:36.065Z,74.9
2017-06-21T20:11:51.593Z,75.1
2017-06-21T20:22:06.076Z,76.6
2017-06-21T20:32:19.996Z,78.4
2017-06-21T20:42:34.265Z,80.4
2017-06-21T20:52:48.102Z,83
2017-06-21T21:03:02.935Z,85.5
2017-06-21T21:13:16.817Z,86.8
2017-06-21T21:23:31.575Z,88.2
2017-06-21T21:33:46.193Z,87.5
2017-06-21T21:44:00.593Z,87.6
2017-06-21T21:54:15.531Z,87.6
2017-06-21T22:04:30.108Z,89.8
2017-06-21T22:14:44.441Z,92
2017-06-21T22:24:59.483Z,93.9
2017-06-21T22:35:14.907Z,94.5
2017-06-21T22:45:29.762Z,94.3
2017-06-21T22:55:45.054Z,95
2017-06-21T23:05:59.214Z,94.4
2017-06-21T23:16:14.441Z,90.8
2017-06-21T23:26:29.809Z,89.4
2017-06-21T23:36:45.361Z,88.7
2017-06-21T23:47:00.094Z,89.6
2017-06-21T23:57:15.090Z,88.7
